Soaring Guidance
Issued by NWS Reno, NV

Home | Current Version | Previous Version | Text Only | Print | Product List | Glossary On
Versions: 1 2 3 4 5 6 7 8 9 10 11 12 13 14
000
UXUS97 KREV 221513
SRGREV

SOARING FORECAST
NATIONAL WEATHER SERVICE - RENO NV
700 AM PST WED FEB 22 2017

THIS SOARING FORECAST IS FOR THE EASTERN SIERRA AND WESTERN NEVADA
WITH SPECIFIC INDICES FOR THE GREATER RENO AREA.

THIS FORECAST IS PREPARED DAILY BY 700 AM AND IS NOT UPDATED.

FOR CURRENT FLIGHT CONDITIONS...FORECASTS...AND ADVISORIES...ACCESS
YOUR LOCAL BRIEFING OUTLET OR FLIGHT SERVICE STATION.

*******************************************************************
FORECASTED LOCAL INDICES FOR RENO:        TODAY     YESTERDAY
FORECASTED MAX TEMP AT RENO (DEG F).....     38          41
FORECASTED TRIGGER TEMPERATURE (DEG F)..     35          45
   NOT EXCEEDED YESTERDAY
FORECASTED MAXIMUM ALTITUDE (FT MSL)....  10300        7600
FORECASTED SOARING INDEX (FPM)..........    459         198
FORECASTED K-INDEX.........VALID 18Z....      4          29
FORECASTED K-INDEX.........VALID 00Z....     22          28
FORECASTED LIFTED INDEX....VALID 18Z....      3          -1
FORECASTED LIFTED INDEX....VALID 00Z....      1          -1

AFTERNOON WINDS ALOFT FORECAST
MSL (FT) WIND/TEMP
9000  2818/-11
10000 2618/-13
12000 2519/-19
14000 2521/-24
16000 2624/-29
18000 2731/-34
24000 2834/-43
30000 2656/-43
34000 2666/-42
39000 2772/-44

SLIDE MOUNTAIN DATA:
     DATE       TIME     TEMP  DEWPT   RH         WIND (MPH)
                        (F)   (F)           | DIR  SPEED GUST
2017-02-22    05:50      10     9     91    | 339    0    0
2017-02-22    05:30      10     9     91    | 339    0    1
2017-02-22    05:20      11     9     91    | 339    0    1
2017-02-22    05:00      11     9     91    | 339    0    1

RENO TAF FORECAST:
KRNO 221240Z 2213/2312 29009KT P6SM VCSH SCT030 BKN060
      TEMPO 2214/2216 3SM -SN SCT010 OVC030
     FM221700 30009KT P6SM VCSH SCT015 BKN035
     FM222000 30012G20KT P6SM SCT050 BKN100
     FM230300 29009KT P6SM SCT080 BKN120
     FM230800 02007KT P6SM SCT020 BKN050

CARSON CITY TAF FORECAST:
KCXP 221131Z 2212/2312 28005KT P6SM -SN FEW004 SCT015 BKN035
      TEMPO 2212/2214 3SM -SN SCT004 BKN015
     FM221400 28006KT P6SM VCSH SCT010 BKN035
     FM221700 29011KT P6SM VCSH SCT015 BKN040
     FM221900 28011G22KT P6SM SCT040 BKN100
     FM230200 26005KT P6SM SCT070 BKN120
     FM230700 04008KT P6SM SCT015 BKN040

OUTLOOK FOR THE RENO-CARSON CITY-MINDEN AREA:
.THURSDAY...MOSTLY CLOUDY. ISOLATED SNOW SHOWERS IN THE MORNING,
THEN SCATTERED SNOW SHOWERS IN THE AFTERNOON. HIGHS 31 TO 36.
NORTHWEST WINDS AROUND 10 MPH.

SUNRISE AND SUNSET
FEBRUARY 22 2017......SUNRISE   642 AM PST   SUNSET   544 PM PST
FEBRUARY 23 2017......SUNRISE   640 AM PST   SUNSET   545 PM PST


USA.gov is the U.S. government's official web portal to all federal, state and local government web resources and services.